createdAt,value
2023-03-08T00:00:20.049Z,61.14
2023-03-08T00:02:50.939Z,61.37
2023-03-08T00:05:18.932Z,61.61
2023-03-08T00:07:46.819Z,61.67
2023-03-08T00:10:15.667Z,61.54
2023-03-08T00:12:43.622Z,61.95
2023-03-08T00:15:11.754Z,62.32
2023-03-08T00:17:40.057Z,62.82
2023-03-08T00:20:09.256Z,62.39
2023-03-08T00:22:38.363Z,62.70
2023-03-08T00:25:06.884Z,63.07
2023-03-08T00:27:34.796Z,62.81
2023-03-08T00:30:07.352Z,62.68
2023-03-08T00:32:37.118Z,63.05
2023-03-08T00:35:05.205Z,62.44
2023-03-08T00:37:33.238Z,62.74
2023-03-08T00:40:01.122Z,63.12
2023-03-08T00:42:28.988Z,62.86
2023-03-08T00:44:56.876Z,62.81
2023-03-08T00:47:24.737Z,62.50
2023-03-08T00:49:52.651Z,62.90
2023-03-08T00:52:20.495Z,62.88
2023-03-08T00:54:48.447Z,63.03
2023-03-08T00:57:17.501Z,62.87
2023-03-08T00:59:45.437Z,62.92
2023-03-08T01:02:13.559Z,63.03
2023-03-08T01:04:41.414Z,62.59
2023-03-08T01:07:09.269Z,62.90
2023-03-08T01:09:37.263Z,63.07
2023-03-08T01:12:05.307Z,62.83
2023-03-08T01:14:33.316Z,62.91
2023-03-08T01:17:01.268Z,63.29
2023-03-08T01:19:29.216Z,63.01
2023-03-08T01:21:57.011Z,63.37
2023-03-08T01:24:24.749Z,63.53
2023-03-08T01:26:53.532Z,63.54
2023-03-08T01:29:21.409Z,63.60
2023-03-08T01:31:49.271Z,63.94
2023-03-08T01:34:17.849Z,63.87
2023-03-08T01:36:45.649Z,63.94
2023-03-08T01:39:13.611Z,63.76
2023-03-08T01:41:41.397Z,64.15
2023-03-08T01:44:22.125Z,64.62
2023-03-08T01:46:50.593Z,64.75
2023-03-08T01:49:22.001Z,64.10
2023-03-08T01:52:10.396Z,64.20
2023-03-08T01:54:48.449Z,63.69
2023-03-08T01:57:27.390Z,63.66
2023-03-08T01:59:57.796Z,63.56
2023-03-08T02:02:28.512Z,63.72
2023-03-08T02:04:56.464Z,63.71
2023-03-08T02:07:24.225Z,63.79
2023-03-08T02:09:52.089Z,64.15
2023-03-08T02:12:19.988Z,64.03
2023-03-08T02:14:47.848Z,64.32
2023-03-08T02:17:15.722Z,64.18
2023-03-08T02:19:51.209Z,64.12
2023-03-08T02:22:19.009Z,64.06
2023-03-08T02:24:46.880Z,63.88
2023-03-08T02:27:19.878Z,64.16
2023-03-08T02:29:47.781Z,64.57
2023-03-08T02:32:16.936Z,64.47
2023-03-08T02:34:44.823Z,64.72
2023-03-08T02:37:12.639Z,64.54
2023-03-08T02:39:40.526Z,64.41
2023-03-08T02:42:08.502Z,64.58
2023-03-08T02:44:36.380Z,65.47
2023-03-08T02:47:04.362Z,66.00
2023-03-08T02:49:32.205Z,65.49
2023-03-08T02:52:00.301Z,66.24
2023-03-08T02:54:28.121Z,66.01
2023-03-08T02:56:55.987Z,66.15
2023-03-08T02:59:24.116Z,66.36
2023-03-08T03:01:51.916Z,66.48
2023-03-08T03:04:20.001Z,66.85
2023-03-08T03:06:48.102Z,66.77
2023-03-08T03:09:15.947Z,67.24
2023-03-08T03:11:43.939Z,67.33
2023-03-08T03:14:11.836Z,67.06
2023-03-08T03:16:39.629Z,67.26
2023-03-08T03:19:07.525Z,67.25
2023-03-08T03:21:35.378Z,67.13
2023-03-08T03:24:03.148Z,68.31
2023-03-08T03:26:41.061Z,67.45
2023-03-08T03:29:08.855Z,67.82
2023-03-08T03:31:36.860Z,67.31
2023-03-08T03:34:04.977Z,67.69
2023-03-08T03:36:33.411Z,68.08
2023-03-08T03:39:01.299Z,67.95
2023-03-08T03:41:29.087Z,68.35
2023-03-08T03:43:56.942Z,68.27
2023-03-08T03:46:24.777Z,68.90
2023-03-08T03:48:52.677Z,69.11
2023-03-08T03:51:22.042Z,68.92
2023-03-08T03:53:49.916Z,68.55
2023-03-08T03:56:22.491Z,69.42
2023-03-08T03:58:50.753Z,69.98
2023-03-08T04:01:26.428Z,68.37
2023-03-08T04:03:54.401Z,68.17
2023-03-08T04:06:23.115Z,69.88
2023-03-08T04:08:52.993Z,68.64
2023-03-08T04:11:22.507Z,68.80
2023-03-08T04:13:50.469Z,67.98
2023-03-08T04:16:23.483Z,67.79
2023-03-08T04:18:55.243Z,69.56
2023-03-08T04:21:23.508Z,67.93
2023-03-08T04:23:51.291Z,69.28
2023-03-08T04:26:19.058Z,68.95
2023-03-08T04:28:46.906Z,69.07
2023-03-08T04:31:14.770Z,69.52
2023-03-08T04:33:42.633Z,69.50
2023-03-08T04:36:10.532Z,69.77
2023-03-08T04:38:38.443Z,70.31
2023-03-08T04:41:15.002Z,70.19
2023-03-08T04:43:56.428Z,69.47
2023-03-08T04:46:26.570Z,68.62
2023-03-08T04:48:55.264Z,69.37
2023-03-08T04:51:24.484Z,69.70
2023-03-08T04:53:52.284Z,70.52
2023-03-08T04:56:20.412Z,69.91
2023-03-08T04:58:48.389Z,70.01
2023-03-08T05:01:20.911Z,70.90
2023-03-08T05:03:50.984Z,69.78
2023-03-08T05:06:20.217Z,70.25
2023-03-08T05:08:48.533Z,69.94
2023-03-08T05:11:21.796Z,70.66
2023-03-08T05:13:50.228Z,70.92
2023-03-08T05:16:19.930Z,70.13
2023-03-08T05:18:48.275Z,70.14
2023-03-08T05:21:17.738Z,70.10
2023-03-08T05:23:45.621Z,71.14
2023-03-08T05:26:14.911Z,70.90
2023-03-08T05:28:45.485Z,70.71
2023-03-08T05:31:17.817Z,71.59
2023-03-08T05:33:47.644Z,71.01
2023-03-08T05:36:15.704Z,71.25
2023-03-08T05:38:43.550Z,71.94
2023-03-08T05:41:14.161Z,71.86
2023-03-08T05:43:42.021Z,71.33
2023-03-08T05:46:12.591Z,72.08
2023-03-08T05:48:40.620Z,71.62
2023-03-08T05:51:09.698Z,72.73
2023-03-08T05:53:37.639Z,72.10
2023-03-08T05:56:19.168Z,72.42
2023-03-08T05:58:48.360Z,72.55
2023-03-08T06:01:20.337Z,72.37
2023-03-08T06:03:49.715Z,73.78
2023-03-08T06:06:17.852Z,73.25
2023-03-08T06:08:45.771Z,73.61
2023-03-08T06:11:13.769Z,73.40
2023-03-08T06:13:41.908Z,74.17
2023-03-08T06:16:09.862Z,74.17
2023-03-08T06:18:38.505Z,75.08
2023-03-08T06:21:11.844Z,75.51
2023-03-08T06:23:39.843Z,75.42
2023-03-08T06:26:07.767Z,75.09
2023-03-08T06:28:35.798Z,74.58
2023-03-08T06:31:03.968Z,75.00
2023-03-08T06:33:33.129Z,75.56
2023-03-08T06:36:03.026Z,76.11
2023-03-08T06:38:33.367Z,76.13
2023-03-08T06:41:01.491Z,77.42
2023-03-08T06:43:29.508Z,77.36
2023-03-08T06:45:57.432Z,76.12
2023-03-08T06:48:25.371Z,76.69
2023-03-08T06:50:53.306Z,76.82
2023-03-08T06:53:21.184Z,76.79
2023-03-08T06:55:49.110Z,78.20
2023-03-08T06:58:17.005Z,76.86
2023-03-08T07:00:44.934Z,77.58
2023-03-08T07:03:13.739Z,77.27
2023-03-08T07:05:41.659Z,75.89
2023-03-08T07:08:09.628Z,76.90
2023-03-08T07:10:37.582Z,76.81
2023-03-08T07:13:05.410Z,76.45
2023-03-08T07:15:33.409Z,77.83
2023-03-08T07:18:01.450Z,76.75
2023-03-08T07:20:29.464Z,77.87
2023-03-08T07:22:57.392Z,76.85
2023-03-08T07:25:25.801Z,77.48
2023-03-08T07:27:53.729Z,76.96
2023-03-08T07:30:21.846Z,77.05
2023-03-08T07:32:49.827Z,77.47
2023-03-08T07:35:18.981Z,79.77
2023-03-08T07:37:47.726Z,81.50
2023-03-08T07:40:19.029Z,77.40
2023-03-08T07:42:47.492Z,75.11
2023-03-08T07:45:15.476Z,74.15
2023-03-08T07:47:43.248Z,73.54
2023-03-08T07:50:11.764Z,73.50
2023-03-08T07:52:39.655Z,72.08
2023-03-08T07:55:08.405Z,71.01
2023-03-08T07:57:36.239Z,70.27
2023-03-08T08:00:12.023Z,70.87
2023-03-08T08:02:40.131Z,69.09
2023-03-08T08:05:08.313Z,68.70
2023-03-08T08:07:36.179Z,68.07
2023-03-08T08:10:04.152Z,67.75
2023-03-08T08:12:32.016Z,68.33
2023-03-08T08:15:01.036Z,68.04
2023-03-08T08:17:28.925Z,68.02
2023-03-08T08:19:56.904Z,67.76
2023-03-08T08:22:24.830Z,67.82
2023-03-08T08:24:52.776Z,67.40
2023-03-08T08:27:20.603Z,67.18
2023-03-08T08:29:50.786Z,67.02
2023-03-08T08:32:18.885Z,67.36
2023-03-08T08:34:46.961Z,67.32
2023-03-08T08:37:14.878Z,67.62
2023-03-08T08:39:42.728Z,68.09
2023-03-08T08:42:10.558Z,66.60
2023-03-08T08:44:38.404Z,66.22
2023-03-08T08:47:06.204Z,66.08
2023-03-08T08:49:33.967Z,66.07
2023-03-08T08:52:01.799Z,66.51
2023-03-08T08:54:30.002Z,65.52
2023-03-08T08:56:57.956Z,66.58
2023-03-08T08:59:28.838Z,67.34
2023-03-08T09:01:56.727Z,66.97
2023-03-08T09:04:24.783Z,66.84
2023-03-08T09:07:08.967Z,66.68
2023-03-08T09:09:37.001Z,67.50
2023-03-08T09:12:05.024Z,67.05
2023-03-08T09:14:32.853Z,66.72
2023-03-08T09:17:00.856Z,66.29
2023-03-08T09:19:28.661Z,66.77
2023-03-08T09:21:56.647Z,68.08
2023-03-08T09:24:24.490Z,67.58
2023-03-08T09:26:52.369Z,67.45
2023-03-08T09:29:20.268Z,67.79
2023-03-08T09:31:48.328Z,65.51
2023-03-08T09:34:16.741Z,65.51
2023-03-08T09:36:44.690Z,65.19
2023-03-08T09:39:13.221Z,65.29
2023-03-08T09:41:58.422Z,64.45
2023-03-08T09:44:47.449Z,64.92
2023-03-08T09:47:32.577Z,65.59
2023-03-08T09:50:06.245Z,65.44
2023-03-08T09:52:39.511Z,65.13
2023-03-08T09:55:15.077Z,65.69
2023-03-08T09:57:48.386Z,65.88
2023-03-08T10:00:33.171Z,65.44
2023-03-08T10:03:19.583Z,65.12
2023-03-08T10:05:49.160Z,64.77
2023-03-08T10:08:28.780Z,63.98
2023-03-08T10:11:13.626Z,63.77
2023-03-08T10:13:42.769Z,62.97
2023-03-08T10:16:16.647Z,62.91
2023-03-08T10:18:56.818Z,62.21
2023-03-08T10:21:25.964Z,60.95
2023-03-08T10:24:14.505Z,60.93
2023-03-08T10:26:44.251Z,58.37
2023-03-08T10:29:13.822Z,58.63
2023-03-08T10:31:44.238Z,58.86
2023-03-08T10:34:23.724Z,59.20
2023-03-08T10:37:11.465Z,57.63
2023-03-08T10:39:48.963Z,59.08
2023-03-08T10:42:18.196Z,59.76
2023-03-08T10:44:58.621Z,59.85
2023-03-08T10:47:27.675Z,59.00
2023-03-08T10:50:10.716Z,58.82
2023-03-08T10:52:38.960Z,58.94
2023-03-08T10:55:21.475Z,60.44
2023-03-08T10:58:01.091Z,60.94
2023-03-08T11:00:35.051Z,61.75
2023-03-08T11:03:18.049Z,63.21
2023-03-08T11:06:15.181Z,63.53
2023-03-08T11:08:56.174Z,63.83
2023-03-08T11:11:24.526Z,65.02
2023-03-08T11:13:53.600Z,64.55
2023-03-08T11:16:59.207Z,64.06
2023-03-08T11:20:11.954Z,64.72
2023-03-08T11:22:57.711Z,64.73
2023-03-08T11:25:47.478Z,65.38
2023-03-08T11:28:27.233Z,65.27
2023-03-08T11:31:04.267Z,65.11
2023-03-08T11:34:03.209Z,64.72
2023-03-08T11:36:45.250Z,64.87
2023-03-08T11:39:42.557Z,65.82
2023-03-08T11:42:21.569Z,65.14
2023-03-08T11:45:23.119Z,63.70
2023-03-08T11:47:54.717Z,62.97
2023-03-08T11:51:06.564Z,63.78
2023-03-08T11:53:37.608Z,63.10
2023-03-08T11:56:22.418Z,63.53
2023-03-08T11:58:56.883Z,64.78
2023-03-08T12:01:57.239Z,64.98
2023-03-08T12:04:32.267Z,65.22
2023-03-08T12:07:02.683Z,67.60
2023-03-08T12:09:50.556Z,68.44
2023-03-08T12:12:28.295Z,68.52
2023-03-08T12:15:00.215Z,68.68
2023-03-08T12:17:40.591Z,68.33
2023-03-08T12:20:14.669Z,69.24
2023-03-08T12:23:23.373Z,70.25
2023-03-08T12:25:54.671Z,70.58
2023-03-08T12:28:26.991Z,70.28
2023-03-08T12:31:26.571Z,70.83
2023-03-08T12:33:56.504Z,70.41
2023-03-08T12:36:36.929Z,70.23
2023-03-08T12:39:31.471Z,71.11
2023-03-08T12:42:15.048Z,70.99
2023-03-08T12:44:43.273Z,71.10
2023-03-08T12:47:14.732Z,70.69
2023-03-08T12:49:47.890Z,71.44
2023-03-08T12:52:18.986Z,71.89
2023-03-08T12:55:10.368Z,71.75
2023-03-08T12:57:47.008Z,71.83
2023-03-08T13:00:21.293Z,71.18
2023-03-08T13:02:59.357Z,70.85
2023-03-08T13:05:31.784Z,70.89
2023-03-08T13:08:16.645Z,72.00
2023-03-08T13:11:25.359Z,71.92
2023-03-08T13:14:02.955Z,71.37
2023-03-08T13:16:35.295Z,71.47
2023-03-08T13:19:09.586Z,70.93
2023-03-08T13:21:42.764Z,70.71
2023-03-08T13:24:18.854Z,70.42
2023-03-08T13:27:17.460Z,70.74
2023-03-08T13:29:45.586Z,71.25
2023-03-08T13:32:19.128Z,70.84
2023-03-08T13:34:59.333Z,70.24
2023-03-08T13:37:29.651Z,70.91
2023-03-08T13:39:59.172Z,70.71
2023-03-08T13:42:29.028Z,71.06
2023-03-08T13:45:11.436Z,71.61
2023-03-08T13:47:40.040Z,71.50
2023-03-08T13:50:08.731Z,71.15
2023-03-08T13:52:38.408Z,71.55
2023-03-08T13:55:08.685Z,71.52
2023-03-08T13:57:38.152Z,71.66
2023-03-08T14:00:43.374Z,71.57
2023-03-08T14:03:20.581Z,72.77
2023-03-08T14:05:49.606Z,73.41
2023-03-08T14:08:28.528Z,73.44
2023-03-08T14:11:00.295Z,73.43
2023-03-08T14:13:31.028Z,73.32
2023-03-08T14:16:06.253Z,73.08
2023-03-08T14:18:44.940Z,72.98
2023-03-08T14:21:17.176Z,73.08
2023-03-08T14:24:02.037Z,73.11
2023-03-08T14:26:37.892Z,73.34
2023-03-08T14:29:18.053Z,73.53
2023-03-08T14:32:12.065Z,73.32
2023-03-08T14:34:50.095Z,73.67
2023-03-08T14:37:27.776Z,74.03
2023-03-08T14:40:14.902Z,74.08
2023-03-08T14:42:48.083Z,74.31
2023-03-08T14:45:33.394Z,74.25
2023-03-08T14:48:23.489Z,74.04
2023-03-08T14:50:59.084Z,73.86
2023-03-08T14:53:30.096Z,73.84
2023-03-08T14:55:59.683Z,73.65
2023-03-08T14:58:30.317Z,73.43
2023-03-08T15:01:00.495Z,74.00
2023-03-08T15:03:29.279Z,73.44
2023-03-08T15:05:57.372Z,73.43
2023-03-08T15:08:25.503Z,73.52
2023-03-08T15:10:53.547Z,73.21
2023-03-08T15:13:23.089Z,72.96
2023-03-08T15:15:51.398Z,72.90
2023-03-08T15:18:19.415Z,71.92
2023-03-08T15:20:50.625Z,72.02
2023-03-08T15:23:23.390Z,72.19
2023-03-08T15:25:51.426Z,72.18
2023-03-08T15:28:20.565Z,71.71
2023-03-08T15:30:49.086Z,71.61
2023-03-08T15:33:17.160Z,71.49
2023-03-08T15:35:45.233Z,71.46
2023-03-08T15:38:15.272Z,71.49
2023-03-08T15:40:43.587Z,71.81
2023-03-08T15:43:11.784Z,72.66
2023-03-08T15:45:39.941Z,74.13
2023-03-08T15:48:16.433Z,78.16
2023-03-08T15:50:44.527Z,81.51
2023-03-08T15:53:13.390Z,80.46
2023-03-08T15:55:44.866Z,81.79
2023-03-08T15:58:13.028Z,82.97
2023-03-08T16:00:42.141Z,83.47
2023-03-08T16:03:14.213Z,83.40
2023-03-08T16:05:42.281Z,83.58
2023-03-08T16:08:10.342Z,85.04
2023-03-08T16:10:41.969Z,85.50
2023-03-08T16:13:10.140Z,86.64
2023-03-08T16:15:42.015Z,87.68
2023-03-08T16:18:10.179Z,88.25
2023-03-08T16:20:41.393Z,88.22
2023-03-08T16:23:09.862Z,89.41
2023-03-08T16:25:37.873Z,90.87
2023-03-08T16:28:06.109Z,90.99
2023-03-08T16:30:34.798Z,91.98
2023-03-08T16:33:02.860Z,92.65
2023-03-08T16:35:30.916Z,95.12
2023-03-08T16:37:58.801Z,95.83
2023-03-08T16:40:32.264Z,96.31
2023-03-08T16:43:00.227Z,98.17
2023-03-08T16:45:28.211Z,99.13
2023-03-08T16:47:56.594Z,98.06
2023-03-08T16:50:27.648Z,100.00
2023-03-08T16:52:56.131Z,100.00
2023-03-08T16:55:24.527Z,100.00
2023-03-08T16:57:52.831Z,100.00
2023-03-08T17:00:21.307Z,100.00
2023-03-08T17:02:49.450Z,100.00
2023-03-08T17:05:17.534Z,100.00
2023-03-08T17:07:47.723Z,100.00
2023-03-08T17:10:15.881Z,100.00
2023-03-08T17:12:43.872Z,100.00
2023-03-08T17:15:12.971Z,100.00
2023-03-08T17:17:41.355Z,100.00
2023-03-08T17:20:10.188Z,100.00
2023-03-08T17:22:38.245Z,100.00
2023-03-08T17:25:06.846Z,100.00
2023-03-08T17:27:34.898Z,100.00
2023-03-08T17:30:05.653Z,100.00
2023-03-08T17:32:33.667Z,100.00
2023-03-08T17:35:01.731Z,100.00
2023-03-08T17:37:29.797Z,100.00
2023-03-08T17:39:57.834Z,100.00
2023-03-08T17:42:25.889Z,100.00
2023-03-08T17:44:53.949Z,100.00
2023-03-08T17:47:22.103Z,100.00
2023-03-08T17:49:50.924Z,100.00
2023-03-08T17:52:18.876Z,100.00
2023-03-08T17:54:46.862Z,100.00
2023-03-08T17:57:15.105Z,100.00
2023-03-08T17:59:49.197Z,100.00
2023-03-08T18:02:18.080Z,100.00
2023-03-08T18:04:49.759Z,100.00
2023-03-08T18:07:18.764Z,100.00
2023-03-08T18:09:47.124Z,100.00
2023-03-08T18:12:15.982Z,100.00
2023-03-08T18:14:44.055Z,100.00
2023-03-08T18:17:12.176Z,100.00
2023-03-08T18:19:40.172Z,100.00
2023-03-08T18:22:08.258Z,100.00
2023-03-08T18:24:36.290Z,100.00
2023-03-08T18:27:06.653Z,100.00
2023-03-08T18:29:38.089Z,100.00
2023-03-08T18:32:06.770Z,100.00
2023-03-08T18:34:34.799Z,100.00
2023-03-08T18:37:02.780Z,100.00
2023-03-08T18:39:30.882Z,100.00
2023-03-08T18:41:59.465Z,100.00
2023-03-08T18:44:27.533Z,100.00
2023-03-08T18:46:55.714Z,100.00
2023-03-08T18:49:23.735Z,100.00
2023-03-08T18:51:51.807Z,100.00
2023-03-08T18:54:21.734Z,100.00
2023-03-08T18:56:55.539Z,100.00
2023-03-08T18:59:24.273Z,100.00
2023-03-08T19:01:52.507Z,100.00
2023-03-08T19:04:20.614Z,100.00
2023-03-08T19:06:48.753Z,100.00
2023-03-08T19:09:17.892Z,100.00
2023-03-08T19:11:47.061Z,100.00
2023-03-08T19:14:15.670Z,100.00
2023-03-08T19:16:43.973Z,100.00
2023-03-08T19:19:13.951Z,100.00
2023-03-08T19:21:44.044Z,100.00
2023-03-08T19:24:16.148Z,100.00
2023-03-08T19:26:48.203Z,100.00
2023-03-08T19:29:23.834Z,100.00
2023-03-08T19:31:53.853Z,100.00
2023-03-08T19:34:23.130Z,100.00
2023-03-08T19:36:51.101Z,100.00
2023-03-08T19:39:23.998Z,100.00
2023-03-08T19:41:53.780Z,100.00
2023-03-08T19:44:21.726Z,100.00
2023-03-08T19:46:49.791Z,100.00
2023-03-08T19:49:20.467Z,100.00
2023-03-08T19:51:50.598Z,100.00
2023-03-08T19:54:23.442Z,100.00
2023-03-08T19:56:51.983Z,100.00
2023-03-08T19:59:20.241Z,100.00
2023-03-08T20:01:51.248Z,100.00
2023-03-08T20:04:19.546Z,100.00
2023-03-08T20:06:49.017Z,100.00
2023-03-08T20:09:20.358Z,100.00
2023-03-08T20:11:50.615Z,100.00
2023-03-08T20:14:19.211Z,100.00
2023-03-08T20:16:47.451Z,100.00
2023-03-08T20:19:16.640Z,100.00
2023-03-08T20:21:44.647Z,100.00
2023-03-08T20:24:12.822Z,100.00
2023-03-08T20:26:43.300Z,100.00
2023-03-08T20:29:11.350Z,100.00
2023-03-08T20:31:41.053Z,100.00
2023-03-08T20:34:09.505Z,100.00
2023-03-08T20:36:38.403Z,100.00
2023-03-08T20:39:06.703Z,100.00
2023-03-08T20:41:34.790Z,100.00
2023-03-08T20:44:03.169Z,100.00
2023-03-08T20:46:34.225Z,100.00
2023-03-08T20:49:03.021Z,100.00
2023-03-08T20:51:31.968Z,100.00
2023-03-08T20:54:01.255Z,100.00
2023-03-08T20:56:30.572Z,100.00
2023-03-08T20:58:59.054Z,100.00
2023-03-08T21:01:30.710Z,100.00
2023-03-08T21:04:00.020Z,100.00
2023-03-08T21:06:30.687Z,100.00
2023-03-08T21:09:00.248Z,100.00
2023-03-08T21:11:29.544Z,100.00
2023-03-08T21:13:58.261Z,100.00
2023-03-08T21:16:27.711Z,100.00
2023-03-08T21:18:59.573Z,100.00
2023-03-08T21:21:29.611Z,100.00
2023-03-08T21:23:59.817Z,100.00
2023-03-08T21:26:28.555Z,100.00
2023-03-08T21:28:58.706Z,100.00
2023-03-08T21:31:27.180Z,100.00
2023-03-08T21:33:55.354Z,100.00
2023-03-08T21:36:23.590Z,100.00
2023-03-08T21:38:56.295Z,100.00
2023-03-08T21:41:35.907Z,100.00
2023-03-08T21:44:05.951Z,100.00
2023-03-08T21:46:34.806Z,100.00
2023-03-08T21:49:03.316Z,100.00
2023-03-08T21:51:31.546Z,100.00
2023-03-08T21:54:00.114Z,100.00
2023-03-08T21:56:28.575Z,100.00
2023-03-08T21:58:57.121Z,100.00
2023-03-08T22:01:30.826Z,100.00
2023-03-08T22:03:59.729Z,100.00
2023-03-08T22:06:28.132Z,100.00
2023-03-08T22:08:56.752Z,100.00
2023-03-08T22:11:25.768Z,100.00
2023-03-08T22:13:58.371Z,100.00
2023-03-08T22:16:27.777Z,100.00
2023-03-08T22:18:58.010Z,100.00
2023-03-08T22:21:26.418Z,100.00
2023-03-08T22:23:55.616Z,100.00
2023-03-08T22:26:24.154Z,100.00
2023-03-08T22:28:52.726Z,100.00
2023-03-08T22:31:22.048Z,100.00
2023-03-08T22:33:50.739Z,100.00
2023-03-08T22:36:19.793Z,100.00
2023-03-08T22:38:48.206Z,100.00
2023-03-08T22:41:21.942Z,100.00
2023-03-08T22:43:50.068Z,100.00
2023-03-08T22:46:19.855Z,100.00
2023-03-08T22:48:48.156Z,100.00
2023-03-08T22:51:16.267Z,100.00
2023-03-08T22:53:44.227Z,100.00
2023-03-08T22:56:25.919Z,100.00
2023-03-08T22:58:54.020Z,100.00
2023-03-08T23:01:23.198Z,100.00
2023-03-08T23:03:51.839Z,100.00
2023-03-08T23:06:19.805Z,100.00
2023-03-08T23:08:48.788Z,100.00
2023-03-08T23:11:16.767Z,100.00
2023-03-08T23:13:44.717Z,100.00
2023-03-08T23:16:13.888Z,100.00
2023-03-08T23:18:41.833Z,100.00
2023-03-08T23:21:12.095Z,100.00
2023-03-08T23:23:39.960Z,100.00
2023-03-08T23:26:09.849Z,100.00
2023-03-08T23:28:37.775Z,100.00
2023-03-08T23:31:16.622Z,100.00
2023-03-08T23:33:44.641Z,100.00
2023-03-08T23:36:13.356Z,100.00
2023-03-08T23:38:41.210Z,100.00
2023-03-08T23:41:15.715Z,100.00
2023-03-08T23:43:43.768Z,100.00
2023-03-08T23:46:19.202Z,100.00
2023-03-08T23:48:47.526Z,100.00
2023-03-08T23:51:20.689Z,100.00
2023-03-08T23:53:53.174Z,100.00
2023-03-08T23:56:31.168Z,100.00
2023-03-08T23:59:00.656Z,100.00
